Time;durP1;ratioP1;P1;durP2;ratioP2;P2;SDS_P1;SDS_P2;PMS_P1;PMS_P2;Temp;Humidity;BMP_temperature;BMP_pressure;BME280_temperature;BME280_humidity;BME280_pressure;Samples;Min_cycle;Max_cycle;Signal;HPM_P1;HPM_P2
2023/08/12 00:01:54;;;;;;;3.63;2.60;;;19.80;99.90;;;;;;4946215;28;20245;-58
2023/08/12 00:04:20;;;;;;;2.90;2.60;;;19.80;99.90;;;;;;4945091;28;20257;-58
2023/08/12 00:06:49;;;;;;;3.50;2.80;;;19.80;99.90;;;;;;4945405;28;20217;-58
2023/08/12 00:09:15;;;;;;;4.80;2.63;;;19.80;99.90;;;;;;4945314;28;20191;-57
2023/08/12 00:11:42;;;;;;;3.50;3.20;;;19.70;99.90;;;;;;4940704;28;20201;-56
2023/08/12 00:14:09;;;;;;;4.23;2.50;;;19.70;99.90;;;;;;4927044;28;20316;-55
2023/08/12 00:16:37;;;;;;;3.23;2.57;;;19.70;99.90;;;;;;4942424;28;20796;-52
2023/08/12 00:19:04;;;;;;;3.17;2.90;;;19.70;99.90;;;;;;4943860;28;20241;-52
2023/08/12 00:21:31;;;;;;;4.60;3.00;;;19.70;99.90;;;;;;4944366;28;20194;-57
2023/08/12 00:23:58;;;;;;;2.90;2.60;;;19.70;99.90;;;;;;4949012;28;20286;-54
2023/08/12 00:26:25;;;;;;;3.77;3.27;;;19.70;99.90;;;;;;4937633;28;20210;-57
2023/08/12 00:28:52;;;;;;;3.63;2.60;;;19.70;99.90;;;;;;4925989;28;20214;-51
2023/08/12 00:31:19;;;;;;;3.23;2.50;;;19.70;99.90;;;;;;4947126;28;20246;-58
2023/08/12 00:33:48;;;;;;;4.57;2.30;;;19.60;99.90;;;;;;4944033;28;20198;-55
2023/08/12 00:36:15;;;;;;;3.03;2.53;;;19.70;99.90;;;;;;4951714;28;20725;-57
2023/08/12 00:38:43;;;;;;;3.10;2.80;;;19.70;99.90;;;;;;4949348;28;20205;-57
2023/08/12 00:41:09;;;;;;;3.20;2.90;;;19.70;99.90;;;;;;4946855;28;20286;-58
2023/08/12 00:43:36;;;;;;;2.57;2.47;;;19.60;99.90;;;;;;4922989;28;20286;-52
2023/08/12 00:46:04;;;;;;;5.03;2.80;;;19.60;99.90;;;;;;4941902;28;20226;-55
2023/08/12 00:48:33;;;;;;;2.90;2.70;;;19.60;99.90;;;;;;4941304;28;20289;-54
2023/08/12 00:51:01;;;;;;;2.67;2.47;;;19.60;99.90;;;;;;4929889;28;20215;-58
2023/08/12 00:53:28;;;;;;;5.30;2.70;;;19.60;99.90;;;;;;4921580;29;20872;-58
2023/08/12 00:55:55;;;;;;;2.97;2.30;;;19.60;99.90;;;;;;4951332;28;20290;-55
2023/08/12 00:58:22;;;;;;;4.43;2.50;;;19.60;99.90;;;;;;4930438;28;20676;-57
2023/08/12 01:00:50;;;;;;;3.90;2.57;;;19.60;99.90;;;;;;4938953;28;20250;-53
2023/08/12 01:03:19;;;;;;;5.10;2.80;;;19.60;99.90;;;;;;4944066;28;20285;-58
2023/08/12 01:05:47;;;;;;;2.70;2.50;;;19.60;99.90;;;;;;4947174;28;20215;-56
2023/08/12 01:08:15;;;;;;;5.83;2.70;;;19.60;99.90;;;;;;4945165;28;20190;-55
2023/08/12 01:10:50;;;;;;;3.20;2.60;;;19.50;99.90;;;;;;4947684;28;20206;-51
2023/08/12 01:13:22;;;;;;;4.50;2.43;;;19.50;99.90;;;;;;4930553;28;20202;-58
2023/08/12 01:15:54;;;;;;;2.70;2.50;;;19.50;99.90;;;;;;4929980;29;20312;-55
2023/08/12 01:18:23;;;;;;;2.70;2.50;;;19.50;99.90;;;;;;4933451;28;20202;-57
2023/08/12 01:20:50;;;;;;;3.67;2.80;;;19.50;99.90;;;;;;4940232;28;20219;-50
2023/08/12 01:23:20;;;;;;;2.53;2.33;;;19.50;99.90;;;;;;4943441;28;20194;-58
2023/08/12 01:25:47;;;;;;;2.60;2.40;;;19.50;99.90;;;;;;4946727;28;20249;-56
2023/08/12 01:28:16;;;;;;;4.57;2.70;;;19.50;99.90;;;;;;4937885;28;20213;-57
2023/08/12 01:30:48;;;;;;;2.80;2.60;;;19.40;99.90;;;;;;4926804;28;20201;-55
2023/08/12 01:33:22;;;;;;;4.47;2.53;;;19.40;99.90;;;;;;4944055;28;20215;-58
2023/08/12 01:35:57;;;;;;;2.93;2.73;;;19.40;99.90;;;;;;4943442;28;20228;-53
2023/08/12 01:38:29;;;;;;;3.47;2.60;;;19.40;99.90;;;;;;4946933;28;20210;-58
2023/08/12 01:40:57;;;;;;;4.67;2.40;;;19.40;99.90;;;;;;4950270;28;20265;-55
2023/08/12 01:43:24;;;;;;;3.57;2.77;;;19.40;99.90;;;;;;4920566;29;20215;-58
2023/08/12 01:45:51;;;;;;;5.20;2.07;;;19.40;99.90;;;;;;4912070;29;20384;-55
2023/08/12 01:48:19;;;;;;;2.97;2.73;;;19.40;99.90;;;;;;4928274;28;20282;-57
2023/08/12 01:50:47;;;;;;;3.20;2.73;;;19.40;99.90;;;;;;4942944;28;20354;-56
2023/08/12 01:53:14;;;;;;;2.87;2.63;;;19.30;99.90;;;;;;4929385;28;20589;-57
2023/08/12 01:55:45;;;;;;;2.53;2.33;;;19.30;99.90;;;;;;4947345;28;20206;-53
2023/08/12 01:58:12;;;;;;;6.53;3.10;;;19.40;99.90;;;;;;4928013;28;20722;-57
2023/08/12 02:00:40;;;;;;;5.43;4.23;;;19.30;99.90;;;;;;4919925;28;20253;-57
2023/08/12 02:03:07;;;;;;;2.90;2.63;;;19.30;99.90;;;;;;4945873;28;20207;-54
2023/08/12 02:05:37;;;;;;;2.33;2.23;;;19.30;99.90;;;;;;4944371;28;20203;-59
2023/08/12 02:08:05;;;;;;;4.17;2.60;;;19.30;99.90;;;;;;4942704;28;20671;-56
2023/08/12 02:10:35;;;;;;;3.43;2.77;;;19.20;99.90;;;;;;4936443;28;20289;-58
2023/08/12 02:13:03;;;;;;;3.10;2.80;;;19.20;99.90;;;;;;4939422;29;20211;-58
2023/08/12 02:15:30;;;;;;;2.93;2.20;;;19.10;99.90;;;;;;4942836;28;20963;-57
2023/08/12 02:17:58;;;;;;;4.23;3.13;;;19.10;99.90;;;;;;4920870;29;20211;-58
2023/08/12 02:20:25;;;;;;;3.90;2.40;;;19.10;99.90;;;;;;4945155;28;20309;-55
2023/08/12 02:22:52;;;;;;;5.40;3.03;;;19.10;99.90;;;;;;4948043;28;20195;-56
2023/08/12 02:25:19;;;;;;;4.00;2.40;;;19.00;99.90;;;;;;4944262;28;20215;-55
2023/08/12 02:27:46;;;;;;;5.10;3.07;;;19.10;99.90;;;;;;4948105;28;20190;-55
2023/08/12 02:30:14;;;;;;;2.77;2.50;;;19.10;99.90;;;;;;4940132;28;20262;-56
2023/08/12 02:32:43;;;;;;;5.10;2.60;;;19.00;99.90;;;;;;4928862;28;20588;-52
2023/08/12 02:35:10;;;;;;;2.90;2.70;;;19.10;99.90;;;;;;4944376;28;20270;-54
2023/08/12 02:37:36;;;;;;;3.30;2.40;;;19.10;99.90;;;;;;4947495;28;20191;-56
2023/08/12 02:40:05;;;;;;;2.83;2.57;;;19.00;99.90;;;;;;4946162;28;20218;-58
2023/08/12 02:42:32;;;;;;;3.27;2.43;;;19.00;99.90;;;;;;4946603;28;20274;-51
2023/08/12 02:44:59;;;;;;;2.77;2.57;;;19.00;99.90;;;;;;4934102;28;20273;-57
2023/08/12 02:47:28;;;;;;;7.57;3.00;;;19.00;99.90;;;;;;4947403;28;20214;-50
2023/08/12 02:49:55;;;;;;;4.80;2.97;;;19.00;99.90;;;;;;4933873;28;20206;-54
2023/08/12 02:52:21;;;;;;;3.93;2.57;;;18.90;99.90;;;;;;4943724;28;20477;-52
2023/08/12 02:54:48;;;;;;;3.00;2.80;;;18.90;99.90;;;;;;4953617;28;20598;-48
2023/08/12 02:57:15;;;;;;;2.70;2.50;;;18.80;99.90;;;;;;4945216;28;20262;-53
2023/08/12 02:59:42;;;;;;;3.20;2.60;;;18.80;99.90;;;;;;4944461;29;20226;-47
2023/08/12 03:02:09;;;;;;;3.20;2.90;;;18.80;99.90;;;;;;4939136;28;20210;-58
2023/08/12 03:04:37;;;;;;;3.87;2.80;;;18.80;99.90;;;;;;4940379;28;20219;-52
2023/08/12 03:07:04;;;;;;;4.37;2.90;;;18.80;99.90;;;;;;4951867;28;20225;-58
2023/08/12 03:09:31;;;;;;;4.10;2.97;;;18.80;99.90;;;;;;4945693;29;20191;-54
2023/08/12 03:12:01;;;;;;;2.77;2.47;;;18.80;99.90;;;;;;4954514;28;20210;-58
2023/08/12 03:14:29;;;;;;;3.17;2.70;;;18.70;99.90;;;;;;4928753;28;20305;-57
2023/08/12 03:16:58;;;;;;;3.13;2.93;;;18.60;99.90;;;;;;4925727;29;20209;-57
2023/08/12 03:19:25;;;;;;;3.93;2.70;;;18.60;99.90;;;;;;4923836;28;20218;-57
2023/08/12 03:21:53;;;;;;;2.53;2.40;;;18.70;99.90;;;;;;4948295;28;20687;-53
2023/08/12 03:24:22;;;;;;;4.27;2.90;;;18.70;99.90;;;;;;4936837;28;21033;-52
2023/08/12 03:26:49;;;;;;;3.60;2.93;;;18.70;99.90;;;;;;4948355;28;20327;-52
2023/08/12 03:29:15;;;;;;;2.80;2.60;;;18.60;99.90;;;;;;4943268;28;20199;-48
2023/08/12 03:31:43;;;;;;;3.63;2.63;;;18.60;99.90;;;;;;4920115;29;20230;-49
2023/08/12 03:34:11;;;;;;;2.93;2.73;;;18.60;99.90;;;;;;4950999;28;20222;-56
2023/08/12 03:36:38;;;;;;;3.53;2.50;;;18.50;99.90;;;;;;4911721;29;20844;-52
2023/08/12 03:39:06;;;;;;;2.70;2.50;;;18.50;99.90;;;;;;4933981;29;20205;-57
2023/08/12 03:41:33;;;;;;;2.97;2.50;;;18.60;99.90;;;;;;4936546;29;20281;-54
2023/08/12 03:44:05;;;;;;;3.33;2.70;;;18.60;99.90;;;;;;4951250;28;20578;-57
2023/08/12 03:46:32;;;;;;;2.80;2.60;;;18.50;99.90;;;;;;4951325;28;20205;-51
2023/08/12 03:48:59;;;;;;;4.50;2.70;;;18.50;99.90;;;;;;4933038;29;20207;-56
2023/08/12 03:51:26;;;;;;;3.20;2.80;;;18.50;99.90;;;;;;4929520;28;21875;-53
2023/08/12 03:53:53;;;;;;;2.87;2.67;;;18.50;99.90;;;;;;4937607;29;20273;-54
2023/08/12 03:56:21;;;;;;;6.67;2.83;;;18.50;99.90;;;;;;4944284;28;20254;-50
2023/08/12 03:58:48;;;;;;;5.17;2.90;;;18.50;99.90;;;;;;4944235;28;20250;-57
2023/08/12 04:01:15;;;;;;;2.80;2.53;;;18.50;99.90;;;;;;4944204;28;20222;-49
2023/08/12 04:03:42;;;;;;;3.03;2.63;;;18.50;99.90;;;;;;4931453;29;20203;-48
2023/08/12 04:06:09;;;;;;;4.17;3.87;;;18.40;99.90;;;;;;4928701;28;20195;-57
2023/08/12 04:08:35;;;;;;;3.10;2.80;;;18.30;99.90;;;;;;4943960;28;20257;-54
2023/08/12 04:11:02;;;;;;;3.10;2.90;;;18.20;99.90;;;;;;4927516;29;20258;-55
2023/08/12 04:13:30;;;;;;;3.73;2.90;;;18.30;99.90;;;;;;4945243;28;20242;-54
2023/08/12 04:15:57;;;;;;;5.77;3.17;;;18.20;99.90;;;;;;4950874;28;20215;-58
2023/08/12 04:18:26;;;;;;;3.37;3.10;;;18.20;99.90;;;;;;4950879;28;20844;-53
2023/08/12 04:20:53;;;;;;;3.93;2.80;;;18.20;99.90;;;;;;4939101;28;20273;-59
2023/08/12 04:23:20;;;;;;;3.20;2.90;;;18.30;99.90;;;;;;4923637;28;20194;-51
2023/08/12 04:25:48;;;;;;;3.20;2.90;;;18.30;99.90;;;;;;4947355;28;20219;-55
2023/08/12 04:28:16;;;;;;;3.10;2.80;;;18.30;99.90;;;;;;4937648;28;20240;-56
2023/08/12 04:30:45;;;;;;;3.27;2.90;;;18.20;99.90;;;;;;4941765;29;20249;-56
2023/08/12 04:33:13;;;;;;;3.30;3.00;;;18.20;99.90;;;;;;4936614;28;20190;-59
2023/08/12 04:35:41;;;;;;;2.90;2.70;;;18.20;99.90;;;;;;4936351;28;20222;-51
2023/08/12 04:38:08;;;;;;;3.43;3.10;;;18.20;99.90;;;;;;4930159;28;20203;-54
2023/08/12 04:40:38;;;;;;;4.33;3.23;;;18.20;99.90;;;;;;4932084;28;20924;-58
2023/08/12 04:43:06;;;;;;;3.43;2.90;;;18.30;99.90;;;;;;4951796;28;20195;-52
2023/08/12 04:45:33;;;;;;;3.07;2.73;;;18.30;99.90;;;;;;4932855;28;20214;-54
2023/08/12 04:48:01;;;;;;;3.53;3.23;;;18.40;99.90;;;;;;4953240;28;20709;-54
2023/08/12 04:50:30;;;;;;;3.33;2.90;;;18.30;99.90;;;;;;4918533;28;20205;-55
2023/08/12 04:52:57;;;;;;;3.10;2.90;;;18.30;99.90;;;;;;4950546;28;20243;-50
2023/08/12 04:55:26;;;;;;;3.67;2.80;;;18.20;99.90;;;;;;4913850;29;20573;-57
2023/08/12 04:57:53;;;;;;;3.40;3.20;;;18.30;99.90;;;;;;4930577;29;20346;-51
2023/08/12 05:00:21;;;;;;;3.43;3.07;;;18.30;99.90;;;;;;4931808;29;20229;-52
2023/08/12 05:02:47;;;;;;;4.23;3.33;;;18.30;99.90;;;;;;4950760;28;20428;-56
2023/08/12 05:05:16;;;;;;;3.83;3.13;;;18.30;99.90;;;;;;4945007;28;20249;-57
2023/08/12 05:07:44;;;;;;;3.23;3.00;;;18.40;99.90;;;;;;4933327;28;20195;-55
2023/08/12 05:10:11;;;;;;;3.43;3.10;;;18.40;99.90;;;;;;4912703;29;20558;-53
2023/08/12 05:12:39;;;;;;;4.63;3.20;;;18.40;99.90;;;;;;4944612;28;20210;-53
2023/08/12 05:15:07;;;;;;;4.57;3.37;;;18.40;99.90;;;;;;4931549;29;20277;-50
2023/08/12 05:17:34;;;;;;;4.00;3.17;;;18.40;99.90;;;;;;4948939;28;20206;-58
2023/08/12 05:20:01;;;;;;;3.17;2.80;;;18.40;99.90;;;;;;4941971;28;20221;-55
2023/08/12 05:22:29;;;;;;;2.87;2.57;;;18.50;99.90;;;;;;4912222;29;20927;-51
2023/08/12 05:24:56;;;;;;;2.93;2.73;;;18.50;99.90;;;;;;4913304;28;20213;-56
2023/08/12 05:27:23;;;;;;;3.03;2.77;;;18.60;99.90;;;;;;4930814;28;20226;-54
2023/08/12 05:29:49;;;;;;;3.00;2.80;;;18.60;99.90;;;;;;4945283;28;20210;-55
2023/08/12 05:32:16;;;;;;;3.50;3.20;;;18.60;99.90;;;;;;4949027;28;20186;-49
2023/08/12 05:34:43;;;;;;;3.50;3.20;;;18.60;99.90;;;;;;4950942;28;20218;-52
2023/08/12 05:37:10;;;;;;;3.97;3.17;;;18.60;99.90;;;;;;4926449;28;20202;-51
2023/08/12 05:39:38;;;;;;;4.00;2.90;;;18.50;99.90;;;;;;4929004;28;20234;-50
2023/08/12 05:42:05;;;;;;;4.43;3.20;;;18.60;99.90;;;;;;4932624;28;20313;-49
2023/08/12 05:44:32;;;;;;;3.97;3.03;;;18.60;99.90;;;;;;4943754;28;20942;-50
2023/08/12 05:46:59;;;;;;;5.33;3.53;;;18.70;99.90;;;;;;4944397;28;20205;-59
2023/08/12 05:49:25;;;;;;;3.43;3.23;;;18.60;99.90;;;;;;4950605;28;20285;-50
2023/08/12 05:51:52;;;;;;;4.70;3.50;;;18.60;99.90;;;;;;4942350;28;20202;-57
2023/08/12 05:54:19;;;;;;;3.33;3.03;;;18.60;99.90;;;;;;4939645;28;20225;-49
2023/08/12 05:56:47;;;;;;;3.00;2.80;;;18.60;99.90;;;;;;4928069;28;20357;-57
2023/08/12 05:59:14;;;;;;;3.90;3.50;;;18.60;99.90;;;;;;4942739;28;20202;-53
2023/08/12 06:01:41;;;;;;;5.03;3.90;;;18.60;99.90;;;;;;4943454;28;20215;-56
2023/08/12 06:04:07;;;;;;;4.20;3.80;;;18.60;99.90;;;;;;4947475;28;21092;-52
2023/08/12 06:06:34;;;;;;;4.53;3.77;;;18.60;99.90;;;;;;4951828;28;20202;-47
2023/08/12 06:09:01;;;;;;;4.60;4.20;;;18.60;99.90;;;;;;4942681;28;20207;-45
2023/08/12 06:11:28;;;;;;;4.40;4.10;;;18.60;99.90;;;;;;4928806;28;20246;-50
2023/08/12 06:13:56;;;;;;;4.17;3.80;;;18.60;99.90;;;;;;4942810;28;20202;-58
2023/08/12 06:16:23;;;;;;;6.30;3.73;;;18.70;99.90;;;;;;4952639;28;20225;-48
2023/08/12 06:18:49;;;;;;;4.60;4.17;;;18.70;99.90;;;;;;4942868;28;20215;-56
2023/08/12 06:21:16;;;;;;;4.83;3.30;;;18.70;99.90;;;;;;4954720;28;20206;-49
2023/08/12 06:23:43;;;;;;;4.73;4.17;;;18.70;99.90;;;;;;4937944;28;20613;-59
2023/08/12 06:26:10;;;;;;;5.07;4.40;;;18.60;99.90;;;;;;4922961;28;20214;-51
2023/08/12 06:28:37;;;;;;;4.53;4.13;;;18.60;99.90;;;;;;4953779;28;20596;-48
2023/08/12 06:31:05;;;;;;;6.83;4.20;;;18.70;99.90;;;;;;4940087;28;20965;-47
2023/08/12 06:33:32;;;;;;;4.83;4.27;;;18.70;99.90;;;;;;4947754;28;20262;-44
2023/08/12 06:35:58;;;;;;;4.27;3.97;;;18.70;99.90;;;;;;4944491;28;20242;-57
2023/08/12 06:38:25;;;;;;;5.80;5.13;;;18.70;99.90;;;;;;4950995;28;20254;-45
2023/08/12 06:40:52;;;;;;;5.77;4.80;;;18.60;99.90;;;;;;4921083;28;20281;-57
2023/08/12 06:43:19;;;;;;;6.60;5.93;;;18.60;99.90;;;;;;4942176;28;20218;-47
2023/08/12 06:45:46;;;;;;;6.57;5.90;;;18.60;99.90;;;;;;4944353;28;20641;-56
2023/08/12 06:48:14;;;;;;;7.13;6.00;;;18.70;99.90;;;;;;4948758;28;20993;-53
2023/08/12 06:50:40;;;;;;;7.30;6.60;;;18.70;99.90;;;;;;4947161;28;20278;-56
2023/08/12 06:53:07;;;;;;;7.30;6.27;;;18.60;99.90;;;;;;4943175;28;20211;-47
2023/08/12 06:55:34;;;;;;;6.40;5.80;;;18.60;99.90;;;;;;4947796;28;20652;-45
2023/08/12 06:58:02;;;;;;;5.57;5.17;;;18.70;99.90;;;;;;4929847;28;20213;-54
2023/08/12 07:00:29;;;;;;;5.60;5.10;;;18.70;99.90;;;;;;4943478;28;20261;-46
2023/08/12 07:02:56;;;;;;;6.23;5.63;;;18.70;99.90;;;;;;4953002;28;20278;-58
2023/08/12 07:05:24;;;;;;;10.53;6.30;;;18.70;99.90;;;;;;4953466;28;20211;-45
2023/08/12 07:07:51;;;;;;;8.17;7.20;;;18.70;99.90;;;;;;4954654;28;20195;-57
2023/08/12 07:10:17;;;;;;;8.50;7.20;;;18.70;99.90;;;;;;4935599;28;20234;-52
2023/08/12 07:12:44;;;;;;;8.00;7.03;;;18.80;99.90;;;;;;4930164;28;20286;-56
2023/08/12 07:15:11;;;;;;;7.27;6.67;;;18.80;99.90;;;;;;4948188;28;20288;-52
2023/08/12 07:17:38;;;;;;;6.93;6.23;;;18.90;99.90;;;;;;4941843;28;20203;-46
2023/08/12 07:20:07;;;;;;;9.13;7.23;;;19.00;99.90;;;;;;4945444;28;20190;-44
2023/08/12 07:22:35;;;;;;;7.83;6.43;;;19.00;99.90;;;;;;4946157;28;20310;-46
2023/08/12 07:25:02;;;;;;;10.33;7.97;;;19.10;99.90;;;;;;4931996;28;20237;-48
2023/08/12 07:27:29;;;;;;;8.27;7.53;;;19.20;99.90;;;;;;4929145;28;20692;-47
2023/08/12 07:29:56;;;;;;;8.43;7.53;;;19.20;99.90;;;;;;4946110;28;20726;-55
2023/08/12 07:32:23;;;;;;;9.07;8.20;;;19.30;99.90;;;;;;4944248;28;20285;-47
2023/08/12 07:34:50;;;;;;;9.37;7.77;;;19.40;99.90;;;;;;4947201;28;20302;-56
2023/08/12 07:37:17;;;;;;;8.03;7.33;;;19.40;99.90;;;;;;4948281;28;20189;-44
2023/08/12 07:39:45;;;;;;;9.03;8.23;;;19.50;99.90;;;;;;4948953;28;20226;-47
2023/08/12 07:42:12;;;;;;;9.10;8.33;;;19.50;99.90;;;;;;4935598;28;20253;-46
2023/08/12 07:44:39;;;;;;;9.17;8.37;;;19.60;99.90;;;;;;4930905;28;20309;-46
2023/08/12 07:47:06;;;;;;;8.73;8.03;;;19.70;99.90;;;;;;4940745;28;20223;-45
2023/08/12 07:49:32;;;;;;;9.03;8.23;;;19.80;99.90;;;;;;4948169;28;20210;-46
2023/08/12 07:51:59;;;;;;;9.53;8.40;;;19.80;99.90;;;;;;4947108;28;20265;-44
2023/08/12 07:54:26;;;;;;;9.17;8.37;;;19.80;99.90;;;;;;4945844;28;20668;-44
2023/08/12 07:56:54;;;;;;;9.57;8.67;;;19.90;99.90;;;;;;4935374;28;20218;-42
2023/08/12 07:59:21;;;;;;;9.67;8.77;;;20.00;99.90;;;;;;4925414;28;20217;-47
2023/08/12 08:01:49;;;;;;;9.70;8.70;;;;;;;;;;4943265;28;20253;-47
2023/08/12 08:04:17;;;;;;;9.43;8.37;;;;;;;;;;4941586;28;20979;-48
2023/08/12 08:06:45;;;;;;;9.10;8.17;;;;;;;;;;4944479;28;20206;-48
2023/08/12 08:09:12;;;;;;;10.40;8.80;;;21.10;99.90;;;;;;4949368;28;20198;-46
2023/08/12 08:11:39;;;;;;;9.77;8.87;;;20.80;99.90;;;;;;4943340;28;20278;-47
2023/08/12 08:14:07;;;;;;;9.10;8.30;;;20.10;99.90;;;;;;4910375;28;20227;-49
2023/08/12 08:16:36;;;;;;;9.43;8.53;;;20.50;99.90;;;;;;4946322;28;20258;-49
2023/08/12 08:19:03;;;;;;;10.27;9.17;;;20.40;99.90;;;;;;4941234;28;20206;-45
2023/08/12 08:21:30;;;;;;;9.43;8.53;;;20.60;99.90;;;;;;4950527;28;20729;-44
2023/08/12 08:23:58;;;;;;;9.73;8.73;;;;;;;;;;4944188;28;20930;-47
2023/08/12 08:26:27;;;;;;;10.37;9.23;;;20.60;99.90;;;;;;4939155;28;20214;-49
2023/08/12 08:28:56;;;;;;;8.97;8.27;;;;;;;;;;4939488;28;20206;-50
2023/08/12 08:31:26;;;;;;;8.57;7.57;;;;;;;;;;4922263;28;20310;-46
2023/08/12 08:33:52;;;;;;;9.63;8.77;;;21.00;99.90;;;;;;4938428;28;20218;-51
2023/08/12 08:36:19;;;;;;;10.43;8.03;;;21.10;99.90;;;;;;4948271;28;20202;-48
2023/08/12 08:38:46;;;;;;;10.57;7.90;;;21.20;99.90;;;;;;4943642;28;20265;-44
2023/08/12 08:41:14;;;;;;;7.97;7.17;;;21.40;99.90;;;;;;4950777;28;20218;-48
2023/08/12 08:43:44;;;;;;;8.90;7.73;;;21.00;99.90;;;;;;4939947;28;20207;-48
2023/08/12 08:46:14;;;;;;;10.17;7.80;;;21.30;99.90;;;;;;4926730;28;20370;-48
2023/08/12 08:48:43;;;;;;;7.73;6.03;;;21.60;99.90;;;;;;4942142;28;20224;-47
2023/08/12 08:51:11;;;;;;;7.18;6.22;;;21.80;99.90;;;;;;4940802;28;20226;-45
2023/08/12 08:53:40;;;;;;;7.53;6.20;;;;;;;;;;4944710;28;20715;-47
2023/08/12 08:56:08;;;;;;;7.83;6.00;;;21.80;99.90;;;;;;4951464;28;20218;-53
2023/08/12 08:58:34;;;;;;;5.93;5.38;;;21.40;99.90;;;;;;4943921;28;20210;-49
2023/08/12 09:01:03;;;;;;;6.68;6.07;;;;;;;;;;4944056;28;20233;-50
2023/08/12 09:03:31;;;;;;;6.20;5.63;;;21.40;99.90;;;;;;4925947;28;20230;-46
2023/08/12 09:05:59;;;;;;;7.53;5.10;;;21.40;99.90;;;;;;4930544;28;20602;-49
2023/08/12 09:08:29;;;;;;;6.88;5.18;;;;;;;;;;4952332;28;20289;-53
2023/08/12 09:10:57;;;;;;;6.25;5.65;;;21.70;99.90;;;;;;4945384;28;20195;-48
2023/08/12 09:13:24;;;;;;;6.13;5.03;;;21.70;99.90;;;;;;4930057;28;20210;-47
2023/08/12 09:15:51;;;;;;;5.00;4.60;;;21.70;99.90;;;;;;4945989;28;20957;-58
2023/08/12 09:18:18;;;;;;;6.07;5.45;;;21.70;99.90;;;;;;4925266;28;20210;-54
2023/08/12 09:20:45;;;;;;;5.55;5.15;;;21.70;99.90;;;;;;4941822;28;20202;-58
2023/08/12 09:23:13;;;;;;;5.22;4.13;;;21.80;99.90;;;;;;4946799;28;20769;-56
2023/08/12 09:25:44;;;;;;;4.97;4.63;;;21.80;99.90;;;;;;4945606;28;20268;-57
2023/08/12 09:28:11;;;;;;;6.40;4.57;;;21.70;99.90;;;;;;4925123;28;20214;-51
2023/08/12 09:30:39;;;;;;;5.22;4.80;;;21.70;99.90;;;;;;4933528;28;20215;-57
2023/08/12 09:33:09;;;;;;;4.82;4.43;;;21.80;99.90;;;;;;4920247;28;20615;-51
2023/08/12 09:35:37;;;;;;;5.40;4.50;;;21.80;99.90;;;;;;4941893;28;20582;-56
2023/08/12 09:38:05;;;;;;;5.22;4.72;;;21.80;99.90;;;;;;4938835;28;20533;-53
2023/08/12 09:40:34;;;;;;;6.05;5.43;;;21.80;99.90;;;;;;4945692;28;20342;-54
2023/08/12 09:43:01;;;;;;;5.30;4.88;;;21.70;99.90;;;;;;4933010;28;20262;-51
2023/08/12 09:45:29;;;;;;;5.63;5.10;;;21.70;99.90;;;;;;4941265;28;20372;-54
2023/08/12 09:47:56;;;;;;;9.88;5.57;;;21.80;99.90;;;;;;4939050;28;20210;-50
2023/08/12 09:50:24;;;;;;;7.90;5.70;;;21.80;99.90;;;;;;4937692;28;20885;-60
2023/08/12 09:52:52;;;;;;;6.22;5.63;;;21.80;99.90;;;;;;4950193;28;20257;-59
2023/08/12 09:55:20;;;;;;;7.53;6.53;;;21.80;99.90;;;;;;4939514;28;20581;-53
2023/08/12 09:57:52;;;;;;;6.32;5.32;;;21.80;99.90;;;;;;4922249;28;20999;-59
2023/08/12 10:00:19;;;;;;;7.45;6.85;;;21.70;99.90;;;;;;4929379;28;20202;-53
2023/08/12 10:02:49;;;;;;;7.45;6.75;;;21.60;99.90;;;;;;4932584;28;21011;-59
2023/08/12 10:05:22;;;;;;;6.97;6.38;;;21.60;99.90;;;;;;4925248;28;20234;-52
2023/08/12 10:07:49;;;;;;;8.13;6.60;;;21.60;99.90;;;;;;4945326;29;20187;-59
2023/08/12 10:10:17;;;;;;;8.05;7.28;;;21.60;99.90;;;;;;4945297;28;20675;-55
2023/08/12 10:12:45;;;;;;;6.72;6.15;;;21.60;99.90;;;;;;4934196;28;21246;-55
2023/08/12 10:15:13;;;;;;;7.00;6.40;;;21.60;99.90;;;;;;4945626;29;20219;-54
2023/08/12 10:17:42;;;;;;;5.97;5.47;;;21.50;99.90;;;;;;4935615;28;20203;-58
2023/08/12 10:20:11;;;;;;;6.00;5.38;;;21.50;99.90;;;;;;4927825;28;20218;-58
2023/08/12 10:22:39;;;;;;;5.35;4.88;;;21.50;99.90;;;;;;4942890;29;20273;-59
2023/08/12 10:25:09;;;;;;;5.65;5.10;;;21.40;99.90;;;;;;4949343;28;20707;-59
2023/08/12 10:27:37;;;;;;;6.72;5.80;;;21.50;99.90;;;;;;4946335;29;20290;-59
2023/08/12 10:30:05;;;;;;;6.47;5.68;;;21.60;99.90;;;;;;4940412;28;20206;-59
2023/08/12 10:32:33;;;;;;;6.75;6.15;;;21.70;99.90;;;;;;4938961;28;20229;-59
2023/08/12 10:35:02;;;;;;;5.78;5.13;;;21.80;99.90;;;;;;4929532;28;20294;-57
2023/08/12 10:37:33;;;;;;;5.93;5.32;;;21.70;99.90;;;;;;4945966;28;20199;-51
2023/08/12 10:40:03;;;;;;;5.90;5.40;;;21.70;99.90;;;;;;4940966;28;20667;-51
2023/08/12 10:42:42;;;;;;;6.15;5.60;;;21.70;99.90;;;;;;4949406;28;20225;-57
2023/08/12 10:45:10;;;;;;;6.68;5.95;;;21.80;99.90;;;;;;4935456;28;20218;-55
2023/08/12 10:47:41;;;;;;;7.10;6.05;;;21.90;99.90;;;;;;4948700;28;20987;-57
2023/08/12 10:50:18;;;;;;;8.63;6.60;;;21.90;99.90;;;;;;4920401;28;20234;-53
2023/08/12 10:52:46;;;;;;;6.18;5.65;;;21.90;99.90;;;;;;4949842;28;20199;-59
2023/08/12 10:55:17;;;;;;;6.07;5.45;;;21.90;99.90;;;;;;4946577;28;20289;-58
2023/08/12 10:57:45;;;;;;;6.25;5.53;;;21.90;99.90;;;;;;4947750;28;20198;-55
2023/08/12 11:00:14;;;;;;;5.90;5.40;;;21.90;99.90;;;;;;4941351;28;20207;-58
2023/08/12 11:02:45;;;;;;;6.88;6.18;;;21.90;99.90;;;;;;4949099;28;20214;-56
2023/08/12 11:05:13;;;;;;;5.97;5.45;;;22.00;99.90;;;;;;4944967;28;20277;-56
2023/08/12 11:07:42;;;;;;;5.72;5.10;;;21.90;99.90;;;;;;4931324;28;20271;-59
2023/08/12 11:10:14;;;;;;;6.57;6.05;;;22.00;99.90;;;;;;4952441;28;20225;-57
2023/08/12 11:12:43;;;;;;;5.35;4.85;;;22.10;99.90;;;;;;4947907;28;20202;-59
2023/08/12 11:15:11;;;;;;;5.68;4.93;;;22.10;99.90;;;;;;4951951;28;20246;-57
2023/08/12 11:17:39;;;;;;;7.18;5.28;;;22.10;99.90;;;;;;4932182;28;20262;-59
2023/08/12 11:20:10;;;;;;;5.88;5.38;;;22.20;99.90;;;;;;4942548;28;20203;-56
2023/08/12 11:22:39;;;;;;;5.43;5.00;;;22.20;99.90;;;;;;4930764;28;20246;-59
2023/08/12 11:25:08;;;;;;;6.13;5.28;;;22.30;99.90;;;;;;4952276;28;20242;-59
2023/08/12 11:27:39;;;;;;;6.22;5.05;;;22.40;99.90;;;;;;4952718;28;20278;-58
2023/08/12 11:30:08;;;;;;;6.03;5.32;;;22.40;99.90;;;;;;4940067;28;20218;-57
2023/08/12 11:32:35;;;;;;;6.47;5.45;;;22.40;99.90;;;;;;4931389;29;20199;-55
2023/08/12 11:35:03;;;;;;;5.97;5.47;;;22.30;99.90;;;;;;4935405;28;21043;-51
2023/08/12 11:37:32;;;;;;;7.18;5.72;;;22.30;99.90;;;;;;4913255;28;20217;-54
2023/08/12 11:39:58;;;;;;;6.43;5.80;;;22.30;99.90;;;;;;4946943;28;20253;-53
2023/08/12 11:42:25;;;;;;;5.68;5.05;;;22.20;99.90;;;;;;4938061;28;20978;-55
2023/08/12 11:44:52;;;;;;;7.22;5.05;;;22.20;99.90;;;;;;4942549;28;20269;-57
2023/08/12 11:47:19;;;;;;;6.30;5.70;;;22.10;99.90;;;;;;4935395;28;20563;-55
2023/08/12 11:49:46;;;;;;;5.43;4.93;;;22.00;99.90;;;;;;4939710;28;20637;-55
2023/08/12 11:52:14;;;;;;;6.13;5.53;;;21.90;99.90;;;;;;4923851;28;20532;-56
2023/08/12 11:54:42;;;;;;;5.63;5.13;;;21.80;99.90;;;;;;4942287;28;20222;-56
2023/08/12 11:57:09;;;;;;;8.00;5.30;;;21.80;99.90;;;;;;4946563;28;20563;-56
2023/08/12 11:59:37;;;;;;;6.63;5.50;;;21.70;99.90;;;;;;4945025;28;20943;-54
2023/08/12 12:02:05;;;;;;;5.95;5.45;;;21.70;99.90;;;;;;4934398;28;20211;-56
2023/08/12 12:04:32;;;;;;;6.93;6.03;;;21.60;99.90;;;;;;4943305;28;20211;-56
2023/08/12 12:06:59;;;;;;;6.90;6.15;;;21.60;99.90;;;;;;4942501;28;20199;-53
2023/08/12 12:09:26;;;;;;;9.50;5.97;;;21.50;99.90;;;;;;4925916;28;20210;-52
2023/08/12 12:11:55;;;;;;;8.27;6.97;;;21.50;99.90;;;;;;4954974;28;20204;-54
2023/08/12 12:14:22;;;;;;;11.20;7.47;;;21.40;99.90;;;;;;4937741;28;20717;-56
2023/08/12 12:16:50;;;;;;;10.40;7.13;;;21.30;99.90;;;;;;4950467;28;20671;-51
2023/08/12 12:19:19;;;;;;;7.85;7.03;;;21.30;99.90;;;;;;4932434;28;20202;-55
2023/08/12 12:21:47;;;;;;;7.57;6.53;;;21.20;99.90;;;;;;4939993;28;20229;-55
2023/08/12 12:24:14;;;;;;;9.23;7.20;;;21.20;99.90;;;;;;4929565;28;20277;-56
2023/08/12 12:26:42;;;;;;;9.18;7.05;;;21.20;99.90;;;;;;4945132;28;20254;-53
2023/08/12 12:29:11;;;;;;;8.60;7.80;;;21.10;99.90;;;;;;4939083;28;20206;-51
2023/08/12 12:31:39;;;;;;;8.15;7.35;;;21.10;99.90;;;;;;4945886;29;20217;-54
2023/08/12 12:34:06;;;;;;;10.70;8.73;;;21.10;99.90;;;;;;4943609;28;20215;-48
2023/08/12 12:36:37;;;;;;;9.50;8.48;;;21.10;99.90;;;;;;4961462;28;20261;-52
2023/08/12 12:39:06;;;;;;;10.48;9.32;;;21.00;99.90;;;;;;4939358;28;20206;-53
2023/08/12 12:41:35;;;;;;;11.80;9.00;;;21.00;99.90;;;;;;4946342;29;20218;-56
2023/08/12 12:44:02;;;;;;;11.13;9.30;;;21.10;99.90;;;;;;4958713;28;20223;-49
2023/08/12 12:46:34;;;;;;;9.23;8.27;;;21.10;99.90;;;;;;4963813;28;20202;-59
2023/08/12 12:49:08;;;;;;;9.95;8.73;;;21.20;99.90;;;;;;4952324;28;20238;-57
2023/08/12 12:51:36;;;;;;;10.82;8.63;;;21.30;99.90;;;;;;4960482;28;20194;-59
2023/08/12 12:54:04;;;;;;;8.52;7.78;;;21.50;99.90;;;;;;4951035;28;20289;-51